sensor_id;sensor_type;location;lat;lon;timestamp;temperature;humidity
6654;DHT22;3363;50.942;7.034;2023-02-18T00:01:31;11.80;94.50
6654;DHT22;3363;50.942;7.034;2023-02-18T00:03:58;11.80;94.70
6654;DHT22;3363;50.942;7.034;2023-02-18T00:06:26;11.80;94.70
6654;DHT22;3363;50.942;7.034;2023-02-18T00:08:53;11.80;95.00
6654;DHT22;3363;50.942;7.034;2023-02-18T00:11:21;11.80;95.60
6654;DHT22;3363;50.942;7.034;2023-02-18T00:13:48;11.90;94.90
6654;DHT22;3363;50.942;7.034;2023-02-18T00:16:17;11.80;95.30
6654;DHT22;3363;50.942;7.034;2023-02-18T00:18:43;11.80;95.40
6654;DHT22;3363;50.942;7.034;2023-02-18T00:21:10;11.80;94.80
6654;DHT22;3363;50.942;7.034;2023-02-18T00:23:37;11.80;95.00
6654;DHT22;3363;50.942;7.034;2023-02-18T00:26:05;11.80;95.60
6654;DHT22;3363;50.942;7.034;2023-02-18T00:28:32;11.80;95.00
6654;DHT22;3363;50.942;7.034;2023-02-18T00:30:59;11.80;95.50
6654;DHT22;3363;50.942;7.034;2023-02-18T00:33:27;11.80;95.30
6654;DHT22;3363;50.942;7.034;2023-02-18T00:35:59;11.80;95.80
6654;DHT22;3363;50.942;7.034;2023-02-18T00:38:26;11.80;95.30
6654;DHT22;3363;50.942;7.034;2023-02-18T00:40:53;11.80;95.60
6654;DHT22;3363;50.942;7.034;2023-02-18T00:43:19;11.80;95.70
6654;DHT22;3363;50.942;7.034;2023-02-18T00:45:46;11.80;95.60
6654;DHT22;3363;50.942;7.034;2023-02-18T00:48:13;11.80;95.30
6654;DHT22;3363;50.942;7.034;2023-02-18T00:50:41;11.80;95.80
6654;DHT22;3363;50.942;7.034;2023-02-18T00:53:08;11.80;95.90
6654;DHT22;3363;50.942;7.034;2023-02-18T00:55:37;11.80;96.50
6654;DHT22;3363;50.942;7.034;2023-02-18T00:58:04;11.80;95.80
6654;DHT22;3363;50.942;7.034;2023-02-18T01:00:30;11.80;95.80
6654;DHT22;3363;50.942;7.034;2023-02-18T01:02:57;11.80;96.40
6654;DHT22;3363;50.942;7.034;2023-02-18T01:05:24;11.80;96.10
6654;DHT22;3363;50.942;7.034;2023-02-18T01:07:52;11.80;96.10
6654;DHT22;3363;50.942;7.034;2023-02-18T01:10:18;11.80;96.00
6654;DHT22;3363;50.942;7.034;2023-02-18T01:12:45;11.70;96.30
6654;DHT22;3363;50.942;7.034;2023-02-18T01:15:13;11.80;96.20
6654;DHT22;3363;50.942;7.034;2023-02-18T01:17:40;11.80;95.70
6654;DHT22;3363;50.942;7.034;2023-02-18T01:20:07;11.80;95.70
6654;DHT22;3363;50.942;7.034;2023-02-18T01:22:34;11.80;95.80
6654;DHT22;3363;50.942;7.034;2023-02-18T01:25:03;11.70;95.40
6654;DHT22;3363;50.942;7.034;2023-02-18T01:27:29;11.70;95.70
6654;DHT22;3363;50.942;7.034;2023-02-18T01:29:56;11.70;96.10
6654;DHT22;3363;50.942;7.034;2023-02-18T01:32:23;11.70;96.00
6654;DHT22;3363;50.942;7.034;2023-02-18T01:34:49;11.80;96.50
6654;DHT22;3363;50.942;7.034;2023-02-18T01:37:16;11.70;96.20
6654;DHT22;3363;50.942;7.034;2023-02-18T01:39:43;11.70;95.70
6654;DHT22;3363;50.942;7.034;2023-02-18T01:42:16;11.70;96.00
6654;DHT22;3363;50.942;7.034;2023-02-18T01:44:43;11.70;96.70
6654;DHT22;3363;50.942;7.034;2023-02-18T01:47:10;11.70;96.60
6654;DHT22;3363;50.942;7.034;2023-02-18T01:49:36;11.70;96.60
6654;DHT22;3363;50.942;7.034;2023-02-18T01:52:04;11.70;97.10
6654;DHT22;3363;50.942;7.034;2023-02-18T01:54:32;11.70;97.10
6654;DHT22;3363;50.942;7.034;2023-02-18T01:57:00;11.70;96.80
6654;DHT22;3363;50.942;7.034;2023-02-18T01:59:29;11.70;96.70
6654;DHT22;3363;50.942;7.034;2023-02-18T02:01:57;11.70;96.60
6654;DHT22;3363;50.942;7.034;2023-02-18T02:04:24;11.70;96.60
6654;DHT22;3363;50.942;7.034;2023-02-18T02:06:51;11.70;96.60
6654;DHT22;3363;50.942;7.034;2023-02-18T02:09:18;11.70;96.70
6654;DHT22;3363;50.942;7.034;2023-02-18T02:14:34;11.70;96.90
6654;DHT22;3363;50.942;7.034;2023-02-18T02:17:06;11.70;96.90
6654;DHT22;3363;50.942;7.034;2023-02-18T02:19:44;11.70;96.80
6654;DHT22;3363;50.942;7.034;2023-02-18T02:24:57;11.70;97.50
6654;DHT22;3363;50.942;7.034;2023-02-18T02:27:31;11.70;97.20
6654;DHT22;3363;50.942;7.034;2023-02-18T02:30:27;11.70;97.60
6654;DHT22;3363;50.942;7.034;2023-02-18T02:33:14;11.60;97.40
6654;DHT22;3363;50.942;7.034;2023-02-18T02:35:45;11.60;97.80
6654;DHT22;3363;50.942;7.034;2023-02-18T02:38:17;11.60;98.10
6654;DHT22;3363;50.942;7.034;2023-02-18T02:40:45;11.60;98.30
6654;DHT22;3363;50.942;7.034;2023-02-18T02:43:14;11.60;98.00
6654;DHT22;3363;50.942;7.034;2023-02-18T02:45:47;11.70;98.10
6654;DHT22;3363;50.942;7.034;2023-02-18T02:48:18;11.60;98.60
6654;DHT22;3363;50.942;7.034;2023-02-18T02:50:50;11.70;98.20
6654;DHT22;3363;50.942;7.034;2023-02-18T02:53:20;11.60;98.60
6654;DHT22;3363;50.942;7.034;2023-02-18T02:55:48;11.60;98.70
6654;DHT22;3363;50.942;7.034;2023-02-18T02:58:16;11.60;98.90
6654;DHT22;3363;50.942;7.034;2023-02-18T03:00:46;11.60;99.00
6654;DHT22;3363;50.942;7.034;2023-02-18T03:03:24;11.60;99.10
6654;DHT22;3363;50.942;7.034;2023-02-18T03:06:00;11.60;98.90
6654;DHT22;3363;50.942;7.034;2023-02-18T03:08:36;11.60;98.60
6654;DHT22;3363;50.942;7.034;2023-02-18T03:11:05;11.60;99.80
6654;DHT22;3363;50.942;7.034;2023-02-18T03:13:36;11.60;99.60
6654;DHT22;3363;50.942;7.034;2023-02-18T03:16:08;11.60;99.90
6654;DHT22;3363;50.942;7.034;2023-02-18T03:18:39;11.60;99.90
6654;DHT22;3363;50.942;7.034;2023-02-18T03:21:08;11.60;99.90
6654;DHT22;3363;50.942;7.034;2023-02-18T03:23:36;11.60;99.90
6654;DHT22;3363;50.942;7.034;2023-02-18T03:26:04;11.60;99.90
6654;DHT22;3363;50.942;7.034;2023-02-18T03:28:31;11.60;99.90
6654;DHT22;3363;50.942;7.034;2023-02-18T03:30:59;11.60;99.90
6654;DHT22;3363;50.942;7.034;2023-02-18T03:33:29;11.60;99.90
6654;DHT22;3363;50.942;7.034;2023-02-18T03:35:56;11.60;99.90
6654;DHT22;3363;50.942;7.034;2023-02-18T03:38:25;11.60;99.90
6654;DHT22;3363;50.942;7.034;2023-02-18T03:40:54;11.60;99.90
6654;DHT22;3363;50.942;7.034;2023-02-18T03:43:21;11.60;99.90
6654;DHT22;3363;50.942;7.034;2023-02-18T03:45:47;11.60;99.90
6654;DHT22;3363;50.942;7.034;2023-02-18T03:48:14;11.60;99.90
6654;DHT22;3363;50.942;7.034;2023-02-18T03:50:41;11.50;99.90
6654;DHT22;3363;50.942;7.034;2023-02-18T03:53:07;11.50;99.90
6654;DHT22;3363;50.942;7.034;2023-02-18T03:55:35;11.50;99.90
6654;DHT22;3363;50.942;7.034;2023-02-18T03:58:02;11.50;99.90
6654;DHT22;3363;50.942;7.034;2023-02-18T04:00:29;11.50;99.90
6654;DHT22;3363;50.942;7.034;2023-02-18T04:02:55;11.50;99.90
6654;DHT22;3363;50.942;7.034;2023-02-18T04:05:22;11.50;99.90
6654;DHT22;3363;50.942;7.034;2023-02-18T04:07:49;11.50;99.90
6654;DHT22;3363;50.942;7.034;2023-02-18T04:10:15;11.50;99.90
6654;DHT22;3363;50.942;7.034;2023-02-18T04:12:43;11.50;99.90
6654;DHT22;3363;50.942;7.034;2023-02-18T04:15:10;11.50;99.90
6654;DHT22;3363;50.942;7.034;2023-02-18T04:17:38;11.50;99.90
6654;DHT22;3363;50.942;7.034;2023-02-18T04:20:05;11.50;99.90
6654;DHT22;3363;50.942;7.034;2023-02-18T04:22:32;11.50;99.90
6654;DHT22;3363;50.942;7.034;2023-02-18T04:24:59;11.50;99.90
6654;DHT22;3363;50.942;7.034;2023-02-18T04:27:26;11.50;99.90
6654;DHT22;3363;50.942;7.034;2023-02-18T04:29:54;11.50;99.90
6654;DHT22;3363;50.942;7.034;2023-02-18T04:32:20;11.50;99.90
6654;DHT22;3363;50.942;7.034;2023-02-18T04:34:47;11.50;99.90
6654;DHT22;3363;50.942;7.034;2023-02-18T04:37:14;11.50;99.90
6654;DHT22;3363;50.942;7.034;2023-02-18T04:39:41;11.50;99.90
6654;DHT22;3363;50.942;7.034;2023-02-18T04:42:07;11.50;99.90
6654;DHT22;3363;50.942;7.034;2023-02-18T04:44:34;11.50;99.90
6654;DHT22;3363;50.942;7.034;2023-02-18T04:47:03;11.50;99.90
6654;DHT22;3363;50.942;7.034;2023-02-18T04:49:30;11.50;99.90
6654;DHT22;3363;50.942;7.034;2023-02-18T04:51:56;11.50;99.90
6654;DHT22;3363;50.942;7.034;2023-02-18T04:54:23;11.50;99.90
6654;DHT22;3363;50.942;7.034;2023-02-18T04:56:50;11.50;99.90
6654;DHT22;3363;50.942;7.034;2023-02-18T04:59:17;11.50;99.90
6654;DHT22;3363;50.942;7.034;2023-02-18T05:01:43;11.50;99.90
6654;DHT22;3363;50.942;7.034;2023-02-18T05:04:11;11.50;99.90
6654;DHT22;3363;50.942;7.034;2023-02-18T05:06:38;11.50;99.90
6654;DHT22;3363;50.942;7.034;2023-02-18T05:09:07;11.50;99.90
6654;DHT22;3363;50.942;7.034;2023-02-18T05:11:34;11.50;99.90
6654;DHT22;3363;50.942;7.034;2023-02-18T05:14:00;11.50;99.90
6654;DHT22;3363;50.942;7.034;2023-02-18T05:16:27;11.50;99.90
6654;DHT22;3363;50.942;7.034;2023-02-18T05:18:54;11.40;99.90
6654;DHT22;3363;50.942;7.034;2023-02-18T05:21:22;11.40;99.90
6654;DHT22;3363;50.942;7.034;2023-02-18T05:23:48;11.40;99.90
6654;DHT22;3363;50.942;7.034;2023-02-18T05:26:15;11.40;99.90
6654;DHT22;3363;50.942;7.034;2023-02-18T05:28:42;11.40;99.90
6654;DHT22;3363;50.942;7.034;2023-02-18T05:31:08;11.40;99.90
6654;DHT22;3363;50.942;7.034;2023-02-18T05:33:35;11.40;99.90
6654;DHT22;3363;50.942;7.034;2023-02-18T05:36:03;11.40;99.90
6654;DHT22;3363;50.942;7.034;2023-02-18T05:38:31;11.30;99.90
6654;DHT22;3363;50.942;7.034;2023-02-18T05:40:58;11.40;99.90
6654;DHT22;3363;50.942;7.034;2023-02-18T05:43:25;11.40;99.90
6654;DHT22;3363;50.942;7.034;2023-02-18T05:45:51;11.30;99.90
6654;DHT22;3363;50.942;7.034;2023-02-18T05:48:18;11.30;99.90
6654;DHT22;3363;50.942;7.034;2023-02-18T05:50:45;11.30;99.90
6654;DHT22;3363;50.942;7.034;2023-02-18T05:53:11;11.30;99.90
6654;DHT22;3363;50.942;7.034;2023-02-18T05:55:39;11.30;99.90
6654;DHT22;3363;50.942;7.034;2023-02-18T05:58:06;11.30;99.90
6654;DHT22;3363;50.942;7.034;2023-02-18T06:00:33;11.30;99.90
6654;DHT22;3363;50.942;7.034;2023-02-18T06:02:59;11.30;99.90
6654;DHT22;3363;50.942;7.034;2023-02-18T06:05:26;11.30;99.90
6654;DHT22;3363;50.942;7.034;2023-02-18T06:07:53;11.30;99.90
6654;DHT22;3363;50.942;7.034;2023-02-18T06:10:20;11.30;99.90
6654;DHT22;3363;50.942;7.034;2023-02-18T06:12:48;11.30;99.90
6654;DHT22;3363;50.942;7.034;2023-02-18T06:15:14;11.30;99.90
6654;DHT22;3363;50.942;7.034;2023-02-18T06:17:41;11.30;99.90
6654;DHT22;3363;50.942;7.034;2023-02-18T06:20:08;11.30;99.90
6654;DHT22;3363;50.942;7.034;2023-02-18T06:22:35;11.30;99.90
6654;DHT22;3363;50.942;7.034;2023-02-18T06:25:02;11.30;99.90
6654;DHT22;3363;50.942;7.034;2023-02-18T06:27:28;11.30;99.90
6654;DHT22;3363;50.942;7.034;2023-02-18T06:29:56;11.30;99.90
6654;DHT22;3363;50.942;7.034;2023-02-18T06:32:23;11.30;99.90
6654;DHT22;3363;50.942;7.034;2023-02-18T06:34:50;11.30;99.90
6654;DHT22;3363;50.942;7.034;2023-02-18T06:37:17;11.20;99.90
6654;DHT22;3363;50.942;7.034;2023-02-18T06:39:43;11.20;99.90
6654;DHT22;3363;50.942;7.034;2023-02-18T06:42:10;11.30;99.90
6654;DHT22;3363;50.942;7.034;2023-02-18T06:44:37;11.20;99.90
6654;DHT22;3363;50.942;7.034;2023-02-18T06:47:05;11.30;99.90
6654;DHT22;3363;50.942;7.034;2023-02-18T06:49:32;11.20;99.90
6654;DHT22;3363;50.942;7.034;2023-02-18T06:52:00;11.20;99.90
6654;DHT22;3363;50.942;7.034;2023-02-18T06:54:27;11.30;99.90
6654;DHT22;3363;50.942;7.034;2023-02-18T06:56:54;11.20;99.90
6654;DHT22;3363;50.942;7.034;2023-02-18T06:59:20;11.20;99.90
6654;DHT22;3363;50.942;7.034;2023-02-18T07:01:47;11.30;99.90
6654;DHT22;3363;50.942;7.034;2023-02-18T07:04:15;11.30;99.90
6654;DHT22;3363;50.942;7.034;2023-02-18T07:06:42;11.30;99.90
6654;DHT22;3363;50.942;7.034;2023-02-18T07:09:08;11.30;99.90
6654;DHT22;3363;50.942;7.034;2023-02-18T07:11:35;11.30;99.90
6654;DHT22;3363;50.942;7.034;2023-02-18T07:14:01;11.30;99.90
6654;DHT22;3363;50.942;7.034;2023-02-18T07:16:28;11.30;99.90
6654;DHT22;3363;50.942;7.034;2023-02-18T07:18:55;11.30;99.90
6654;DHT22;3363;50.942;7.034;2023-02-18T07:21:23;11.30;99.90
6654;DHT22;3363;50.942;7.034;2023-02-18T07:23:50;11.30;99.90
6654;DHT22;3363;50.942;7.034;2023-02-18T07:26:16;11.30;99.90
6654;DHT22;3363;50.942;7.034;2023-02-18T07:28:43;11.30;99.90
6654;DHT22;3363;50.942;7.034;2023-02-18T07:31:10;11.30;99.90
6654;DHT22;3363;50.942;7.034;2023-02-18T07:33:36;11.30;99.80
6654;DHT22;3363;50.942;7.034;2023-02-18T07:36:03;11.30;99.90
6654;DHT22;3363;50.942;7.034;2023-02-18T07:38:32;11.30;99.30
6654;DHT22;3363;50.942;7.034;2023-02-18T07:40:58;11.40;97.20
6654;DHT22;3363;50.942;7.034;2023-02-18T07:43:25;11.40;97.00
6654;DHT22;3363;50.942;7.034;2023-02-18T07:45:52;11.40;97.50
6654;DHT22;3363;50.942;7.034;2023-02-18T07:48:18;11.40;97.00
6654;DHT22;3363;50.942;7.034;2023-02-18T07:50:45;11.40;97.30
6654;DHT22;3363;50.942;7.034;2023-02-18T07:53:12;11.40;96.60
6654;DHT22;3363;50.942;7.034;2023-02-18T07:55:41;11.40;95.70
6654;DHT22;3363;50.942;7.034;2023-02-18T07:58:16;11.40;96.20
6654;DHT22;3363;50.942;7.034;2023-02-18T08:00:43;11.40;96.20
6654;DHT22;3363;50.942;7.034;2023-02-18T08:03:12;11.40;96.00
6654;DHT22;3363;50.942;7.034;2023-02-18T08:05:38;11.40;95.60
6654;DHT22;3363;50.942;7.034;2023-02-18T08:08:05;11.30;96.50
6654;DHT22;3363;50.942;7.034;2023-02-18T08:10:31;11.30;96.60
6654;DHT22;3363;50.942;7.034;2023-02-18T08:12:59;11.30;97.10
6654;DHT22;3363;50.942;7.034;2023-02-18T08:15:26;11.20;96.90
6654;DHT22;3363;50.942;7.034;2023-02-18T08:17:53;11.20;97.70
6654;DHT22;3363;50.942;7.034;2023-02-18T08:20:20;11.20;98.30
6654;DHT22;3363;50.942;7.034;2023-02-18T08:22:46;11.20;99.50
6654;DHT22;3363;50.942;7.034;2023-02-18T08:25:13;11.20;99.90
6654;DHT22;3363;50.942;7.034;2023-02-18T08:27:40;11.10;99.90
6654;DHT22;3363;50.942;7.034;2023-02-18T08:30:09;11.10;99.90
6654;DHT22;3363;50.942;7.034;2023-02-18T08:32:36;11.10;99.90
6654;DHT22;3363;50.942;7.034;2023-02-18T08:35:03;11.10;98.40
6654;DHT22;3363;50.942;7.034;2023-02-18T08:37:29;11.00;97.60
6654;DHT22;3363;50.942;7.034;2023-02-18T08:39:56;11.00;98.60
6654;DHT22;3363;50.942;7.034;2023-02-18T08:42:23;11.00;98.80
6654;DHT22;3363;50.942;7.034;2023-02-18T08:44:50;11.10;98.90
6654;DHT22;3363;50.942;7.034;2023-02-18T08:47:18;11.10;97.30
6654;DHT22;3363;50.942;7.034;2023-02-18T08:49:44;11.00;95.20
6654;DHT22;3363;50.942;7.034;2023-02-18T08:52:11;11.00;91.70
6654;DHT22;3363;50.942;7.034;2023-02-18T08:54:38;11.10;92.20
6654;DHT22;3363;50.942;7.034;2023-02-18T08:57:04;11.10;91.80
6654;DHT22;3363;50.942;7.034;2023-02-18T08:59:31;11.10;92.10
6654;DHT22;3363;50.942;7.034;2023-02-18T09:01:58;11.10;91.00
6654;DHT22;3363;50.942;7.034;2023-02-18T09:04:26;11.00;90.10
6654;DHT22;3363;50.942;7.034;2023-02-18T09:06:52;11.00;90.20
6654;DHT22;3363;50.942;7.034;2023-02-18T09:09:19;11.10;86.70
6654;DHT22;3363;50.942;7.034;2023-02-18T09:11:46;11.10;89.60
6654;DHT22;3363;50.942;7.034;2023-02-18T09:14:13;11.10;90.10
6654;DHT22;3363;50.942;7.034;2023-02-18T09:16:39;11.00;82.80
6654;DHT22;3363;50.942;7.034;2023-02-18T09:19:07;11.00;86.00
6654;DHT22;3363;50.942;7.034;2023-02-18T09:21:36;11.00;86.50
6654;DHT22;3363;50.942;7.034;2023-02-18T09:24:03;11.00;86.70
6654;DHT22;3363;50.942;7.034;2023-02-18T09:26:29;11.10;86.90
6654;DHT22;3363;50.942;7.034;2023-02-18T09:28:56;11.10;87.60
6654;DHT22;3363;50.942;7.034;2023-02-18T09:31:24;11.10;86.60
6654;DHT22;3363;50.942;7.034;2023-02-18T09:33:54;11.10;88.20
6654;DHT22;3363;50.942;7.034;2023-02-18T09:36:21;11.10;86.40
6654;DHT22;3363;50.942;7.034;2023-02-18T09:38:49;11.10;85.70
6654;DHT22;3363;50.942;7.034;2023-02-18T09:41:19;11.10;86.90
6654;DHT22;3363;50.942;7.034;2023-02-18T09:43:50;11.20;84.40
6654;DHT22;3363;50.942;7.034;2023-02-18T09:46:21;11.20;84.00
6654;DHT22;3363;50.942;7.034;2023-02-18T09:48:49;11.20;85.00
6654;DHT22;3363;50.942;7.034;2023-02-18T09:51:16;11.20;84.80
6654;DHT22;3363;50.942;7.034;2023-02-18T09:53:44;11.20;84.20
6654;DHT22;3363;50.942;7.034;2023-02-18T09:56:13;11.20;85.80
6654;DHT22;3363;50.942;7.034;2023-02-18T09:58:40;11.10;83.00
6654;DHT22;3363;50.942;7.034;2023-02-18T10:01:10;11.10;85.20
6654;DHT22;3363;50.942;7.034;2023-02-18T10:03:38;11.10;84.30
6654;DHT22;3363;50.942;7.034;2023-02-18T10:06:07;11.10;83.50
6654;DHT22;3363;50.942;7.034;2023-02-18T10:08:36;11.10;84.60
6654;DHT22;3363;50.942;7.034;2023-02-18T10:11:03;11.10;83.30
6654;DHT22;3363;50.942;7.034;2023-02-18T10:13:32;11.20;84.40
6654;DHT22;3363;50.942;7.034;2023-02-18T10:15:59;11.10;83.10
6654;DHT22;3363;50.942;7.034;2023-02-18T10:18:27;11.10;80.80
6654;DHT22;3363;50.942;7.034;2023-02-18T10:21:00;11.10;82.80
6654;DHT22;3363;50.942;7.034;2023-02-18T10:23:29;11.10;82.40
6654;DHT22;3363;50.942;7.034;2023-02-18T10:25:56;11.20;83.80
6654;DHT22;3363;50.942;7.034;2023-02-18T10:28:24;11.10;82.80
6654;DHT22;3363;50.942;7.034;2023-02-18T10:30:54;11.20;82.80
6654;DHT22;3363;50.942;7.034;2023-02-18T10:33:26;11.10;83.50
6654;DHT22;3363;50.942;7.034;2023-02-18T10:35:58;11.10;83.00
6654;DHT22;3363;50.942;7.034;2023-02-18T10:38:30;11.10;83.10
6654;DHT22;3363;50.942;7.034;2023-02-18T10:41:03;11.10;83.80
6654;DHT22;3363;50.942;7.034;2023-02-18T10:43:34;11.10;84.90
6654;DHT22;3363;50.942;7.034;2023-02-18T10:46:06;11.10;85.10
6654;DHT22;3363;50.942;7.034;2023-02-18T10:48:41;11.10;85.80
6654;DHT22;3363;50.942;7.034;2023-02-18T10:51:14;11.10;85.80
6654;DHT22;3363;50.942;7.034;2023-02-18T10:53:41;11.10;86.40
6654;DHT22;3363;50.942;7.034;2023-02-18T10:56:13;11.10;85.60
6654;DHT22;3363;50.942;7.034;2023-02-18T10:58:59;11.10;84.70
6654;DHT22;3363;50.942;7.034;2023-02-18T11:01:27;11.10;85.00
6654;DHT22;3363;50.942;7.034;2023-02-18T11:04:03;11.10;84.60
6654;DHT22;3363;50.942;7.034;2023-02-18T11:06:30;11.10;85.20
6654;DHT22;3363;50.942;7.034;2023-02-18T11:08:58;11.10;86.40
6654;DHT22;3363;50.942;7.034;2023-02-18T11:11:27;11.10;90.10
6654;DHT22;3363;50.942;7.034;2023-02-18T11:13:55;11.00;90.60
6654;DHT22;3363;50.942;7.034;2023-02-18T11:16:22;11.00;90.80
6654;DHT22;3363;50.942;7.034;2023-02-18T11:18:50;11.00;92.60
6654;DHT22;3363;50.942;7.034;2023-02-18T11:21:23;11.00;92.30
6654;DHT22;3363;50.942;7.034;2023-02-18T11:23:52;11.00;92.20
6654;DHT22;3363;50.942;7.034;2023-02-18T11:26:20;11.00;93.20
6654;DHT22;3363;50.942;7.034;2023-02-18T11:28:49;11.00;93.40
6654;DHT22;3363;50.942;7.034;2023-02-18T11:31:18;11.00;93.30
6654;DHT22;3363;50.942;7.034;2023-02-18T11:33:47;11.00;94.50
6654;DHT22;3363;50.942;7.034;2023-02-18T11:36:20;11.00;93.90
6654;DHT22;3363;50.942;7.034;2023-02-18T11:38:49;11.00;94.60
6654;DHT22;3363;50.942;7.034;2023-02-18T11:41:16;11.00;95.20
6654;DHT22;3363;50.942;7.034;2023-02-18T11:43:44;11.00;96.20
6654;DHT22;3363;50.942;7.034;2023-02-18T11:46:13;11.00;99.90
6654;DHT22;3363;50.942;7.034;2023-02-18T11:48:40;11.00;99.90
6654;DHT22;3363;50.942;7.034;2023-02-18T11:51:10;11.00;99.90
6654;DHT22;3363;50.942;7.034;2023-02-18T11:53:49;10.90;99.90
6654;DHT22;3363;50.942;7.034;2023-02-18T11:56:18;10.90;99.90
6654;DHT22;3363;50.942;7.034;2023-02-18T11:58:46;10.90;99.90
6654;DHT22;3363;50.942;7.034;2023-02-18T12:01:14;10.90;99.90
6654;DHT22;3363;50.942;7.034;2023-02-18T12:03:44;10.90;99.90
6654;DHT22;3363;50.942;7.034;2023-02-18T12:06:13;10.90;99.90
6654;DHT22;3363;50.942;7.034;2023-02-18T12:08:44;10.90;99.90
6654;DHT22;3363;50.942;7.034;2023-02-18T12:11:14;10.90;99.90
6654;DHT22;3363;50.942;7.034;2023-02-18T12:13:44;10.90;99.90
6654;DHT22;3363;50.942;7.034;2023-02-18T12:16:15;10.90;99.90
6654;DHT22;3363;50.942;7.034;2023-02-18T12:18:52;10.90;99.90
6654;DHT22;3363;50.942;7.034;2023-02-18T12:21:23;10.80;99.90
6654;DHT22;3363;50.942;7.034;2023-02-18T12:23:57;10.90;99.90
6654;DHT22;3363;50.942;7.034;2023-02-18T12:26:28;10.90;99.90
6654;DHT22;3363;50.942;7.034;2023-02-18T12:29:10;10.90;99.90
6654;DHT22;3363;50.942;7.034;2023-02-18T12:31:51;10.90;99.90
6654;DHT22;3363;50.942;7.034;2023-02-18T12:34:35;10.90;99.90
6654;DHT22;3363;50.942;7.034;2023-02-18T12:37:08;10.90;99.90
6654;DHT22;3363;50.942;7.034;2023-02-18T12:39:45;10.90;99.90
6654;DHT22;3363;50.942;7.034;2023-02-18T12:42:18;10.80;99.90
6654;DHT22;3363;50.942;7.034;2023-02-18T12:44:53;10.90;99.90
6654;DHT22;3363;50.942;7.034;2023-02-18T12:47:35;10.90;99.90
6654;DHT22;3363;50.942;7.034;2023-02-18T12:50:14;10.90;99.90
6654;DHT22;3363;50.942;7.034;2023-02-18T12:52:47;10.90;99.90
6654;DHT22;3363;50.942;7.034;2023-02-18T12:55:22;10.90;99.90
6654;DHT22;3363;50.942;7.034;2023-02-18T12:57:52;10.90;99.90
6654;DHT22;3363;50.942;7.034;2023-02-18T13:00:35;11.00;99.90
6654;DHT22;3363;50.942;7.034;2023-02-18T13:03:13;11.00;99.90
6654;DHT22;3363;50.942;7.034;2023-02-18T13:05:45;11.00;99.90
6654;DHT22;3363;50.942;7.034;2023-02-18T13:08:19;11.00;99.90
6654;DHT22;3363;50.942;7.034;2023-02-18T13:10:53;11.00;99.90
6654;DHT22;3363;50.942;7.034;2023-02-18T13:13:22;10.90;99.90
6654;DHT22;3363;50.942;7.034;2023-02-18T13:15:51;10.90;99.90
6654;DHT22;3363;50.942;7.034;2023-02-18T13:18:19;11.00;99.90
6654;DHT22;3363;50.942;7.034;2023-02-18T13:20:47;11.00;99.90
6654;DHT22;3363;50.942;7.034;2023-02-18T13:23:18;11.00;99.90
6654;DHT22;3363;50.942;7.034;2023-02-18T13:25:46;11.00;99.90
6654;DHT22;3363;50.942;7.034;2023-02-18T13:28:19;11.00;99.90
6654;DHT22;3363;50.942;7.034;2023-02-18T13:30:47;10.90;99.90
6654;DHT22;3363;50.942;7.034;2023-02-18T13:33:16;10.90;99.90
6654;DHT22;3363;50.942;7.034;2023-02-18T13:35:45;10.90;99.90
6654;DHT22;3363;50.942;7.034;2023-02-18T13:38:25;10.90;99.90
6654;DHT22;3363;50.942;7.034;2023-02-18T13:40:56;10.90;99.90
6654;DHT22;3363;50.942;7.034;2023-02-18T13:43:29;10.90;99.90
6654;DHT22;3363;50.942;7.034;2023-02-18T13:46:09;10.90;99.90
6654;DHT22;3363;50.942;7.034;2023-02-18T13:48:42;11.00;99.90
6654;DHT22;3363;50.942;7.034;2023-02-18T13:51:12;11.00;99.90
6654;DHT22;3363;50.942;7.034;2023-02-18T13:53:39;11.00;99.90
6654;DHT22;3363;50.942;7.034;2023-02-18T13:56:08;11.00;99.90
6654;DHT22;3363;50.942;7.034;2023-02-18T13:58:39;11.00;99.90
6654;DHT22;3363;50.942;7.034;2023-02-18T14:01:12;11.00;99.90
6654;DHT22;3363;50.942;7.034;2023-02-18T14:03:50;10.90;99.90
6654;DHT22;3363;50.942;7.034;2023-02-18T14:06:17;11.00;99.90
6654;DHT22;3363;50.942;7.034;2023-02-18T14:08:45;11.00;99.90
6654;DHT22;3363;50.942;7.034;2023-02-18T14:19:27;10.90;99.90
6654;DHT22;3363;50.942;7.034;2023-02-18T14:24:42;10.90;99.90
6654;DHT22;3363;50.942;7.034;2023-02-18T14:27:13;10.90;99.90
6654;DHT22;3363;50.942;7.034;2023-02-18T14:29:40;10.90;99.90
6654;DHT22;3363;50.942;7.034;2023-02-18T14:32:08;10.90;99.90
6654;DHT22;3363;50.942;7.034;2023-02-18T14:37:28;10.90;99.90
6654;DHT22;3363;50.942;7.034;2023-02-18T14:39:59;10.90;99.90
6654;DHT22;3363;50.942;7.034;2023-02-18T14:42:30;10.90;99.90
6654;DHT22;3363;50.942;7.034;2023-02-18T14:45:08;10.90;99.90
6654;DHT22;3363;50.942;7.034;2023-02-18T14:47:38;11.00;99.90
6654;DHT22;3363;50.942;7.034;2023-02-18T14:50:11;10.90;99.90
6654;DHT22;3363;50.942;7.034;2023-02-18T14:52:40;11.00;99.90
6654;DHT22;3363;50.942;7.034;2023-02-18T14:55:13;10.90;99.90
6654;DHT22;3363;50.942;7.034;2023-02-18T14:57:43;11.00;99.90
6654;DHT22;3363;50.942;7.034;2023-02-18T15:00:13;11.00;99.90
6654;DHT22;3363;50.942;7.034;2023-02-18T15:02:40;11.00;99.90
6654;DHT22;3363;50.942;7.034;2023-02-18T15:05:11;11.00;99.90
6654;DHT22;3363;50.942;7.034;2023-02-18T15:07:40;11.00;99.90
6654;DHT22;3363;50.942;7.034;2023-02-18T15:10:12;11.00;99.90
6654;DHT22;3363;50.942;7.034;2023-02-18T15:12:39;11.00;99.90
6654;DHT22;3363;50.942;7.034;2023-02-18T15:15:06;11.00;99.90
6654;DHT22;3363;50.942;7.034;2023-02-18T15:17:33;10.90;99.90
6654;DHT22;3363;50.942;7.034;2023-02-18T15:20:02;10.90;99.90
6654;DHT22;3363;50.942;7.034;2023-02-18T15:22:30;11.00;99.90
6654;DHT22;3363;50.942;7.034;2023-02-18T15:24:59;11.00;99.90
6654;DHT22;3363;50.942;7.034;2023-02-18T15:27:27;11.00;99.90
6654;DHT22;3363;50.942;7.034;2023-02-18T15:29:56;10.90;99.90
6654;DHT22;3363;50.942;7.034;2023-02-18T15:32:23;11.00;99.90
6654;DHT22;3363;50.942;7.034;2023-02-18T15:34:52;11.00;99.90
6654;DHT22;3363;50.942;7.034;2023-02-18T15:37:19;10.90;99.90
6654;DHT22;3363;50.942;7.034;2023-02-18T15:39:45;11.00;99.90
6654;DHT22;3363;50.942;7.034;2023-02-18T15:42:18;11.00;99.90
6654;DHT22;3363;50.942;7.034;2023-02-18T15:44:48;11.00;99.90
6654;DHT22;3363;50.942;7.034;2023-02-18T15:47:16;11.00;99.90
6654;DHT22;3363;50.942;7.034;2023-02-18T15:49:44;11.00;99.90
6654;DHT22;3363;50.942;7.034;2023-02-18T15:52:11;11.00;99.90
6654;DHT22;3363;50.942;7.034;2023-02-18T15:54:39;11.00;99.90
6654;DHT22;3363;50.942;7.034;2023-02-18T15:57:07;11.00;99.90
6654;DHT22;3363;50.942;7.034;2023-02-18T15:59:41;11.00;99.90
6654;DHT22;3363;50.942;7.034;2023-02-18T16:02:11;11.00;99.90
6654;DHT22;3363;50.942;7.034;2023-02-18T16:04:40;10.90;99.90
6654;DHT22;3363;50.942;7.034;2023-02-18T16:07:18;10.90;99.90
6654;DHT22;3363;50.942;7.034;2023-02-18T16:09:45;10.90;99.90
6654;DHT22;3363;50.942;7.034;2023-02-18T16:12:12;11.00;99.90
6654;DHT22;3363;50.942;7.034;2023-02-18T16:14:44;10.90;99.90
6654;DHT22;3363;50.942;7.034;2023-02-18T16:17:13;11.00;99.90
6654;DHT22;3363;50.942;7.034;2023-02-18T16:19:44;11.00;99.90
6654;DHT22;3363;50.942;7.034;2023-02-18T16:22:22;11.00;99.90
6654;DHT22;3363;50.942;7.034;2023-02-18T16:24:49;11.00;99.90
6654;DHT22;3363;50.942;7.034;2023-02-18T16:27:20;11.00;99.90
6654;DHT22;3363;50.942;7.034;2023-02-18T16:29:49;11.00;99.90
6654;DHT22;3363;50.942;7.034;2023-02-18T16:32:16;11.00;99.90